sensor_id;sensor_type;location;lat;lon;timestamp;pressure;altitude;pressure_sealevel;temperature;humidity
61055;BME280;46939;48.940;8.258;2022-12-04T00:01:24;100126.56;;;11.71;41.55
61055;BME280;46939;48.940;8.258;2022-12-04T00:03:54;100134.19;;;12.01;40.80
61055;BME280;46939;48.940;8.258;2022-12-04T00:06:23;100131.34;;;12.29;40.28
61055;BME280;46939;48.940;8.258;2022-12-04T00:08:53;100128.28;;;12.12;40.56
61055;BME280;46939;48.940;8.258;2022-12-04T00:11:23;100130.31;;;12.43;40.35
61055;BME280;46939;48.940;8.258;2022-12-04T00:13:51;100128.25;;;12.45;39.60
61055;BME280;46939;48.940;8.258;2022-12-04T00:16:24;100131.75;;;12.39;40.37
61055;BME280;46939;48.940;8.258;2022-12-04T00:18:53;100141.94;;;12.22;40.36
61055;BME280;46939;48.940;8.258;2022-12-04T00:21:23;100138.78;;;11.59;41.21
61055;BME280;46939;48.940;8.258;2022-12-04T00:23:52;100126.84;;;12.09;40.96
61055;BME280;46939;48.940;8.258;2022-12-04T00:26:22;100129.50;;;12.36;40.40
61055;BME280;46939;48.940;8.258;2022-12-04T00:28:51;100120.50;;;12.43;40.12
61055;BME280;46939;48.940;8.258;2022-12-04T00:31:21;100111.53;;;12.38;40.19
61055;BME280;46939;48.940;8.258;2022-12-04T00:33:53;100106.59;;;12.61;39.83
61055;BME280;46939;48.940;8.258;2022-12-04T00:36:23;100109.47;;;12.40;40.02
61055;BME280;46939;48.940;8.258;2022-12-04T00:38:53;100104.16;;;12.40;40.04
61055;BME280;46939;48.940;8.258;2022-12-04T00:41:24;100102.28;;;12.60;39.64
61055;BME280;46939;48.940;8.258;2022-12-04T00:43:53;100099.03;;;12.45;39.76
61055;BME280;46939;48.940;8.258;2022-12-04T00:46:21;100109.88;;;12.50;39.98
61055;BME280;46939;48.940;8.258;2022-12-04T00:48:53;100095.75;;;12.56;39.85
61055;BME280;46939;48.940;8.258;2022-12-04T00:51:23;100104.38;;;12.32;40.18
61055;BME280;46939;48.940;8.258;2022-12-04T00:53:52;100115.81;;;12.39;40.07
61055;BME280;46939;48.940;8.258;2022-12-04T00:56:23;100114.78;;;12.07;40.66
61055;BME280;46939;48.940;8.258;2022-12-04T00:58:53;100109.69;;;11.92;41.15
61055;BME280;46939;48.940;8.258;2022-12-04T01:01:22;100105.19;;;12.12;40.65
61055;BME280;46939;48.940;8.258;2022-12-04T01:03:54;100108.88;;;12.25;40.38
61055;BME280;46939;48.940;8.258;2022-12-04T01:06:24;100114.38;;;12.43;39.99
61055;BME280;46939;48.940;8.258;2022-12-04T01:08:54;100116.00;;;12.37;40.03
61055;BME280;46939;48.940;8.258;2022-12-04T01:11:24;100119.06;;;12.61;39.50
61055;BME280;46939;48.940;8.258;2022-12-04T01:13:53;100114.38;;;12.36;40.23
61055;BME280;46939;48.940;8.258;2022-12-04T01:16:23;100121.94;;;12.39;40.13
61055;BME280;46939;48.940;8.258;2022-12-04T01:18:55;100120.94;;;12.34;40.14
61055;BME280;46939;48.940;8.258;2022-12-04T01:21:23;100123.59;;;12.34;39.89
61055;BME280;46939;48.940;8.258;2022-12-04T01:23:52;100118.91;;;12.23;40.08
61055;BME280;46939;48.940;8.258;2022-12-04T01:26:20;100115.63;;;12.34;39.94
61055;BME280;46939;48.940;8.258;2022-12-04T01:28:48;100107.81;;;12.52;39.90
61055;BME280;46939;48.940;8.258;2022-12-04T01:31:18;100117.22;;;12.55;40.03
61055;BME280;46939;48.940;8.258;2022-12-04T01:33:48;100112.75;;;12.42;40.02
61055;BME280;46939;48.940;8.258;2022-12-04T01:36:22;100119.69;;;12.36;39.94
61055;BME280;46939;48.940;8.258;2022-12-04T01:38:50;100116.00;;;12.51;39.92
61055;BME280;46939;48.940;8.258;2022-12-04T01:41:24;100117.00;;;12.56;40.09
61055;BME280;46939;48.940;8.258;2022-12-04T01:44:06;100112.94;;;12.47;40.08
61055;BME280;46939;48.940;8.258;2022-12-04T01:46:35;100111.69;;;12.69;39.90
61055;BME280;46939;48.940;8.258;2022-12-04T01:49:04;100118.44;;;12.59;39.60
61055;BME280;46939;48.940;8.258;2022-12-04T01:51:39;100117.84;;;12.43;40.18
61055;BME280;46939;48.940;8.258;2022-12-04T01:54:13;100117.00;;;12.63;40.23
61055;BME280;46939;48.940;8.258;2022-12-04T01:56:45;100113.94;;;12.66;40.13
61055;BME280;46939;48.940;8.258;2022-12-04T01:59:19;100100.47;;;12.61;39.46
61055;BME280;46939;48.940;8.258;2022-12-04T02:01:58;100097.41;;;12.37;40.22
61055;BME280;46939;48.940;8.258;2022-12-04T02:04:30;100113.34;;;12.44;40.27
61055;BME280;46939;48.940;8.258;2022-12-04T02:07:03;100107.22;;;12.43;40.61
61055;BME280;46939;48.940;8.258;2022-12-04T02:09:32;100101.72;;;12.25;40.43
61055;BME280;46939;48.940;8.258;2022-12-04T02:12:09;100105.78;;;12.54;40.12
61055;BME280;46939;48.940;8.258;2022-12-04T02:14:48;100097.63;;;12.29;40.64
61055;BME280;46939;48.940;8.258;2022-12-04T02:17:25;100099.66;;;12.54;39.89
61055;BME280;46939;48.940;8.258;2022-12-04T02:20:09;100112.97;;;12.27;40.69
61055;BME280;46939;48.940;8.258;2022-12-04T02:22:53;100109.47;;;12.53;40.43
61055;BME280;46939;48.940;8.258;2022-12-04T02:25:34;100111.94;;;12.41;41.04
61055;BME280;46939;48.940;8.258;2022-12-04T02:28:14;100106.16;;;12.71;40.56
61055;BME280;46939;48.940;8.258;2022-12-04T02:30:50;100103.75;;;12.43;40.29
61055;BME280;46939;48.940;8.258;2022-12-04T02:33:22;100104.06;;;12.80;39.80
61055;BME280;46939;48.940;8.258;2022-12-04T02:35:54;100104.13;;;12.66;39.67
61055;BME280;46939;48.940;8.258;2022-12-04T02:38:32;100101.81;;;12.90;39.73
61055;BME280;46939;48.940;8.258;2022-12-04T02:41:07;100106.31;;;12.89;39.65
61055;BME280;46939;48.940;8.258;2022-12-04T02:43:43;100101.25;;;12.75;40.12
61055;BME280;46939;48.940;8.258;2022-12-04T02:46:17;100096.16;;;12.73;40.03
61055;BME280;46939;48.940;8.258;2022-12-04T02:48:49;100097.13;;;12.92;39.72
61055;BME280;46939;48.940;8.258;2022-12-04T02:51:20;100086.72;;;12.84;39.86
61055;BME280;46939;48.940;8.258;2022-12-04T02:53:53;100096.16;;;12.73;39.75
61055;BME280;46939;48.940;8.258;2022-12-04T02:56:25;100087.38;;;12.66;40.12
61055;BME280;46939;48.940;8.258;2022-12-04T02:58:58;100081.59;;;12.76;40.09
61055;BME280;46939;48.940;8.258;2022-12-04T03:01:31;100088.13;;;12.86;39.69
61055;BME280;46939;48.940;8.258;2022-12-04T03:04:03;100085.69;;;12.71;39.81
61055;BME280;46939;48.940;8.258;2022-12-04T03:06:37;100081.41;;;12.70;39.98
61055;BME280;46939;48.940;8.258;2022-12-04T03:09:09;100088.34;;;12.78;39.74
61055;BME280;46939;48.940;8.258;2022-12-04T03:11:43;100076.28;;;12.76;40.10
61055;BME280;46939;48.940;8.258;2022-12-04T03:14:18;100064.00;;;12.81;40.00
61055;BME280;46939;48.940;8.258;2022-12-04T03:16:51;100068.69;;;12.86;39.85
61055;BME280;46939;48.940;8.258;2022-12-04T03:19:24;100075.03;;;12.85;39.79
61055;BME280;46939;48.940;8.258;2022-12-04T03:21:57;100070.78;;;12.70;39.93
61055;BME280;46939;48.940;8.258;2022-12-04T03:24:29;100070.59;;;12.65;39.92
61055;BME280;46939;48.940;8.258;2022-12-04T03:27:04;100077.13;;;12.69;39.84
61055;BME280;46939;48.940;8.258;2022-12-04T03:29:42;100071.81;;;12.76;39.91
61055;BME280;46939;48.940;8.258;2022-12-04T03:32:15;100073.84;;;12.67;40.10
61055;BME280;46939;48.940;8.258;2022-12-04T03:34:50;100069.09;;;12.89;39.18
61055;BME280;46939;48.940;8.258;2022-12-04T03:37:26;100041.78;;;12.62;39.75
61055;BME280;46939;48.940;8.258;2022-12-04T03:40:02;100059.50;;;12.88;39.94
61055;BME280;46939;48.940;8.258;2022-12-04T03:42:37;100064.22;;;12.80;39.52
61055;BME280;46939;48.940;8.258;2022-12-04T03:45:12;100061.75;;;12.91;39.13
61055;BME280;46939;48.940;8.258;2022-12-04T03:47:46;100053.56;;;12.80;39.45
61055;BME280;46939;48.940;8.258;2022-12-04T03:50:21;100051.75;;;12.80;39.63
61055;BME280;46939;48.940;8.258;2022-12-04T03:52:57;100062.38;;;12.80;39.79
61055;BME280;46939;48.940;8.258;2022-12-04T03:55:31;100057.09;;;12.74;39.31
61055;BME280;46939;48.940;8.258;2022-12-04T03:58:06;100056.69;;;12.77;39.24
61055;BME280;46939;48.940;8.258;2022-12-04T04:00:41;100061.19;;;12.76;39.25
61055;BME280;46939;48.940;8.258;2022-12-04T04:03:12;100061.59;;;12.73;39.63
61055;BME280;46939;48.940;8.258;2022-12-04T04:05:44;100051.53;;;12.82;39.31
61055;BME280;46939;48.940;8.258;2022-12-04T04:08:16;100059.09;;;12.78;39.64
61055;BME280;46939;48.940;8.258;2022-12-04T04:11:02;100055.88;;;12.69;39.57
61055;BME280;46939;48.940;8.258;2022-12-04T04:13:37;100064.19;;;12.86;39.40
61055;BME280;46939;48.940;8.258;2022-12-04T04:16:25;100052.50;;;12.94;39.21
61055;BME280;46939;48.940;8.258;2022-12-04T04:19:08;100045.97;;;12.90;39.24
61055;BME280;46939;48.940;8.258;2022-12-04T04:21:54;100047.84;;;12.83;39.29
61055;BME280;46939;48.940;8.258;2022-12-04T04:24:40;100056.22;;;12.80;39.44
61055;BME280;46939;48.940;8.258;2022-12-04T04:27:09;100063.78;;;12.83;39.62
61055;BME280;46939;48.940;8.258;2022-12-04T04:29:38;100071.97;;;12.88;39.95
61055;BME280;46939;48.940;8.258;2022-12-04T04:32:12;100075.03;;;12.91;39.31
61055;BME280;46939;48.940;8.258;2022-12-04T04:34:49;100070.72;;;12.90;39.74
61055;BME280;46939;48.940;8.258;2022-12-04T04:37:25;100076.84;;;12.91;39.40
61055;BME280;46939;48.940;8.258;2022-12-04T04:40:00;100067.75;;;12.60;39.86
61055;BME280;46939;48.940;8.258;2022-12-04T04:42:35;100045.19;;;12.83;39.24
61055;BME280;46939;48.940;8.258;2022-12-04T04:45:10;100064.75;;;12.95;39.09
61055;BME280;46939;48.940;8.258;2022-12-04T04:47:46;100061.09;;;12.96;39.12
61055;BME280;46939;48.940;8.258;2022-12-04T04:50:16;100064.41;;;12.85;39.60
61055;BME280;46939;48.940;8.258;2022-12-04T04:52:48;100066.03;;;12.86;39.06
61055;BME280;46939;48.940;8.258;2022-12-04T04:55:18;100063.28;;;12.48;39.79
61055;BME280;46939;48.940;8.258;2022-12-04T04:57:47;100062.38;;;12.80;39.45
61055;BME280;46939;48.940;8.258;2022-12-04T05:00:17;100061.59;;;12.73;39.20
61055;BME280;46939;48.940;8.258;2022-12-04T05:02:49;100070.53;;;12.85;39.59
61055;BME280;46939;48.940;8.258;2022-12-04T05:05:18;100072.63;;;12.77;39.63
61055;BME280;46939;48.940;8.258;2022-12-04T05:07:46;100082.06;;;12.66;40.00
61055;BME280;46939;48.940;8.258;2022-12-04T05:10:15;100074.66;;;12.68;40.05
61055;BME280;46939;48.940;8.258;2022-12-04T05:12:43;100082.88;;;12.60;39.91
61055;BME280;46939;48.940;8.258;2022-12-04T05:15:11;100090.84;;;12.66;39.84
61055;BME280;46939;48.940;8.258;2022-12-04T05:17:40;100086.31;;;12.80;39.55
61055;BME280;46939;48.940;8.258;2022-12-04T05:20:11;100081.41;;;12.77;39.48
61055;BME280;46939;48.940;8.258;2022-12-04T05:22:39;100084.94;;;12.58;39.72
61055;BME280;46939;48.940;8.258;2022-12-04T05:25:09;100082.63;;;12.81;39.43
61055;BME280;46939;48.940;8.258;2022-12-04T05:27:37;100092.22;;;12.82;39.42
61055;BME280;46939;48.940;8.258;2022-12-04T05:30:07;100089.97;;;12.79;39.74
61055;BME280;46939;48.940;8.258;2022-12-04T05:32:35;100084.47;;;12.81;39.52
61055;BME280;46939;48.940;8.258;2022-12-04T05:35:04;100076.66;;;12.86;39.15
61055;BME280;46939;48.940;8.258;2022-12-04T05:37:38;100084.66;;;12.86;39.09
61055;BME280;46939;48.940;8.258;2022-12-04T05:40:08;100081.34;;;12.90;39.15
61055;BME280;46939;48.940;8.258;2022-12-04T05:42:36;100087.28;;;12.92;39.36
61055;BME280;46939;48.940;8.258;2022-12-04T05:45:06;100088.53;;;12.83;39.28
61055;BME280;46939;48.940;8.258;2022-12-04T05:47:37;100092.38;;;12.94;39.38
61055;BME280;46939;48.940;8.258;2022-12-04T05:50:07;100094.41;;;13.05;39.35
61055;BME280;46939;48.940;8.258;2022-12-04T05:52:39;100084.81;;;12.91;39.56
61055;BME280;46939;48.940;8.258;2022-12-04T05:55:07;100082.56;;;12.94;39.32
61055;BME280;46939;48.940;8.258;2022-12-04T05:57:36;100090.53;;;13.01;39.25
61055;BME280;46939;48.940;8.258;2022-12-04T06:00:05;100090.59;;;12.88;39.63
61055;BME280;46939;48.940;8.258;2022-12-04T06:02:34;100084.66;;;12.86;39.95
61055;BME280;46939;48.940;8.258;2022-12-04T06:05:03;100084.00;;;12.97;39.57
61055;BME280;46939;48.940;8.258;2022-12-04T06:07:31;100077.84;;;13.03;39.09
61055;BME280;46939;48.940;8.258;2022-12-04T06:10:03;100073.34;;;13.04;39.49
61055;BME280;46939;48.940;8.258;2022-12-04T06:12:32;100077.06;;;12.96;39.38
61055;BME280;46939;48.940;8.258;2022-12-04T06:15:00;100078.66;;;13.04;39.69
61055;BME280;46939;48.940;8.258;2022-12-04T06:17:28;100077.41;;;13.06;39.90
61055;BME280;46939;48.940;8.258;2022-12-04T06:19:57;100079.25;;;13.06;39.66
61055;BME280;46939;48.940;8.258;2022-12-04T06:22:25;100082.56;;;13.01;39.81
61055;BME280;46939;48.940;8.258;2022-12-04T06:24:53;100077.00;;;13.03;39.78
61055;BME280;46939;48.940;8.258;2022-12-04T06:27:24;100076.19;;;13.02;40.13
61055;BME280;46939;48.940;8.258;2022-12-04T06:29:53;100072.94;;;13.00;39.93
61055;BME280;46939;48.940;8.258;2022-12-04T06:32:21;100077.41;;;13.06;39.51
61055;BME280;46939;48.940;8.258;2022-12-04T06:34:50;100078.44;;;13.05;39.47
61055;BME280;46939;48.940;8.258;2022-12-04T06:37:20;100087.78;;;13.14;39.37
61055;BME280;46939;48.940;8.258;2022-12-04T06:39:48;100084.97;;;13.09;39.21
61055;BME280;46939;48.940;8.258;2022-12-04T06:42:17;100093.84;;;12.83;39.58
61055;BME280;46939;48.940;8.258;2022-12-04T06:44:48;100088.91;;;12.93;39.79
61055;BME280;46939;48.940;8.258;2022-12-04T06:47:16;100092.44;;;12.81;39.76
61055;BME280;46939;48.940;8.258;2022-12-04T06:49:48;100088.50;;;12.90;39.88
61055;BME280;46939;48.940;8.258;2022-12-04T06:52:16;100093.19;;;13.01;39.70
61055;BME280;46939;48.940;8.258;2022-12-04T06:54:45;100096.66;;;13.02;39.76
61055;BME280;46939;48.940;8.258;2022-12-04T06:57:13;100091.56;;;13.00;40.12
61055;BME280;46939;48.940;8.258;2022-12-04T06:59:42;100094.41;;;13.05;39.70
61055;BME280;46939;48.940;8.258;2022-12-04T07:02:13;100092.38;;;12.94;39.85
61055;BME280;46939;48.940;8.258;2022-12-04T07:04:41;100090.69;;;13.06;39.83
61055;BME280;46939;48.940;8.258;2022-12-04T07:07:09;100094.00;;;13.02;39.40
61055;BME280;46939;48.940;8.258;2022-12-04T07:09:38;100083.97;;;13.04;39.29
61055;BME280;46939;48.940;8.258;2022-12-04T07:12:06;100094.00;;;13.02;39.62
61055;BME280;46939;48.940;8.258;2022-12-04T07:14:35;100089.88;;;13.12;39.31
61055;BME280;46939;48.940;8.258;2022-12-04T07:17:03;100098.66;;;13.13;39.52
61055;BME280;46939;48.940;8.258;2022-12-04T07:19:35;100089.94;;;12.99;39.95
61055;BME280;46939;48.940;8.258;2022-12-04T07:22:04;100083.34;;;13.08;39.30
61055;BME280;46939;48.940;8.258;2022-12-04T07:24:34;100085.53;;;13.18;39.35
61055;BME280;46939;48.940;8.258;2022-12-04T07:27:03;100090.28;;;13.09;39.94
61055;BME280;46939;48.940;8.258;2022-12-04T07:29:31;100087.63;;;13.09;39.64
61055;BME280;46939;48.940;8.258;2022-12-04T07:32:00;100088.44;;;13.10;39.30
61055;BME280;46939;48.940;8.258;2022-12-04T07:34:28;100084.72;;;13.24;39.25
61055;BME280;46939;48.940;8.258;2022-12-04T07:36:59;100089.06;;;13.12;39.46
61055;BME280;46939;48.940;8.258;2022-12-04T07:39:28;100088.41;;;13.16;39.47
61055;BME280;46939;48.940;8.258;2022-12-04T07:41:56;100096.81;;;13.13;39.74
61055;BME280;46939;48.940;8.258;2022-12-04T07:44:24;100094.16;;;13.13;39.68
61055;BME280;46939;48.940;8.258;2022-12-04T07:46:53;100089.06;;;13.05;39.81
61055;BME280;46939;48.940;8.258;2022-12-04T07:49:21;100093.16;;;13.08;39.96
61055;BME280;46939;48.940;8.258;2022-12-04T07:51:49;100095.41;;;13.11;39.79
61055;BME280;46939;48.940;8.258;2022-12-04T07:54:20;100097.59;;;13.20;39.65
61055;BME280;46939;48.940;8.258;2022-12-04T07:56:49;100105.22;;;13.10;39.39
61055;BME280;46939;48.940;8.258;2022-12-04T07:59:17;100109.88;;;13.22;39.50
61055;BME280;46939;48.940;8.258;2022-12-04T08:01:45;100105.00;;;13.12;39.58
61055;BME280;46939;48.940;8.258;2022-12-04T08:04:14;100108.66;;;13.17;39.52
61055;BME280;46939;48.940;8.258;2022-12-04T08:06:42;100097.59;;;13.20;39.86
61055;BME280;46939;48.940;8.258;2022-12-04T08:09:11;100101.06;;;13.21;39.42
61055;BME280;46939;48.940;8.258;2022-12-04T08:11:41;100094.56;;;13.24;39.18
61055;BME280;46939;48.940;8.258;2022-12-04T08:14:10;100095.34;;;13.31;39.50
61055;BME280;46939;48.940;8.258;2022-12-04T08:16:39;100086.59;;;13.24;39.01
61055;BME280;46939;48.940;8.258;2022-12-04T08:19:08;100097.03;;;13.18;39.32
61055;BME280;46939;48.940;8.258;2022-12-04T08:21:36;100089.63;;;13.20;39.79
61055;BME280;46939;48.940;8.258;2022-12-04T08:24:05;100097.59;;;13.34;39.50
61055;BME280;46939;48.940;8.258;2022-12-04T08:26:34;100094.06;;;13.40;39.27
61055;BME280;46939;48.940;8.258;2022-12-04T08:29:05;100106.19;;;13.23;39.71
61055;BME280;46939;48.940;8.258;2022-12-04T08:31:34;100102.47;;;13.37;39.36
61055;BME280;46939;48.940;8.258;2022-12-04T08:34:05;100097.38;;;13.29;39.34
61055;BME280;46939;48.940;8.258;2022-12-04T08:36:34;100087.75;;;13.34;39.84
61055;BME280;46939;48.940;8.258;2022-12-04T08:39:03;100092.03;;;13.42;39.77
61055;BME280;46939;48.940;8.258;2022-12-04T08:41:32;100085.50;;;13.38;39.47
61055;BME280;46939;48.940;8.258;2022-12-04T08:44:03;100091.97;;;13.49;39.34
61055;BME280;46939;48.940;8.258;2022-12-04T08:46:32;100092.56;;;13.51;39.61
61055;BME280;46939;48.940;8.258;2022-12-04T08:49:01;100090.09;;;13.11;39.74
61055;BME280;46939;48.940;8.258;2022-12-04T08:51:30;100086.09;;;13.33;40.10
61055;BME280;46939;48.940;8.258;2022-12-04T08:54:02;100095.50;;;13.42;39.61
61055;BME280;46939;48.940;8.258;2022-12-04T08:56:32;100095.50;;;13.42;39.61
61055;BME280;46939;48.940;8.258;2022-12-04T08:59:04;100101.06;;;13.21;40.25
61055;BME280;46939;48.940;8.258;2022-12-04T09:01:33;100105.84;;;13.06;40.52
61055;BME280;46939;48.940;8.258;2022-12-04T09:04:01;100115.84;;;13.24;40.29
61055;BME280;46939;48.940;8.258;2022-12-04T09:06:29;100115.53;;;13.45;39.88
61055;BME280;46939;48.940;8.258;2022-12-04T09:08:58;100126.63;;;13.35;39.81
61055;BME280;46939;48.940;8.258;2022-12-04T09:11:28;100127.22;;;13.37;39.75
61055;BME280;46939;48.940;8.258;2022-12-04T09:13:57;100121.47;;;13.47;39.88
61055;BME280;46939;48.940;8.258;2022-12-04T09:16:28;100123.44;;;13.58;39.53
61055;BME280;46939;48.940;8.258;2022-12-04T09:18:56;100117.69;;;13.61;39.42
61055;BME280;46939;48.940;8.258;2022-12-04T09:21:25;100124.63;;;13.69;39.38
61055;BME280;46939;48.940;8.258;2022-12-04T09:23:53;100116.03;;;13.67;39.35
61055;BME280;46939;48.940;8.258;2022-12-04T09:26:23;100113.38;;;13.60;39.53
61055;BME280;46939;48.940;8.258;2022-12-04T09:28:53;100115.34;;;13.78;38.94
61055;BME280;46939;48.940;8.258;2022-12-04T09:31:22;100112.72;;;13.72;39.39
61055;BME280;46939;48.940;8.258;2022-12-04T09:33:53;100110.31;;;13.63;39.15
61055;BME280;46939;48.940;8.258;2022-12-04T09:36:22;100099.13;;;13.80;38.83
61055;BME280;46939;48.940;8.258;2022-12-04T09:38:52;100107.56;;;13.77;39.26
61055;BME280;46939;48.940;8.258;2022-12-04T09:41:47;100106.94;;;13.81;39.41
61055;BME280;46939;48.940;8.258;2022-12-04T09:44:22;100100.28;;;13.90;39.16
61055;BME280;46939;48.940;8.258;2022-12-04T09:46:53;100106.28;;;13.86;38.94
61055;BME280;46939;48.940;8.258;2022-12-04T09:49:32;100101.56;;;13.88;39.23
61055;BME280;46939;48.940;8.258;2022-12-04T09:52:21;100094.97;;;13.90;38.91
61055;BME280;46939;48.940;8.258;2022-12-04T09:54:51;100084.75;;;13.87;39.21
61055;BME280;46939;48.940;8.258;2022-12-04T09:57:24;100087.16;;;13.96;39.62
61055;BME280;46939;48.940;8.258;2022-12-04T09:59:56;100094.38;;;13.88;39.19
61055;BME280;46939;48.940;8.258;2022-12-04T10:02:33;100092.97;;;13.86;39.28
61055;BME280;46939;48.940;8.258;2022-12-04T10:05:05;100090.97;;;14.06;39.00
61055;BME280;46939;48.940;8.258;2022-12-04T10:07:39;100083.03;;;14.00;38.99
61055;BME280;46939;48.940;8.258;2022-12-04T10:10:17;100076.72;;;13.94;38.99
61055;BME280;46939;48.940;8.258;2022-12-04T10:12:48;100086.09;;;14.03;38.97
61055;BME280;46939;48.940;8.258;2022-12-04T10:15:26;100057.91;;;13.89;38.62
61055;BME280;46939;48.940;8.258;2022-12-04T10:18:18;100072.91;;;14.08;39.22
61055;BME280;46939;48.940;8.258;2022-12-04T10:21:12;100073.06;;;14.13;38.57
61055;BME280;46939;48.940;8.258;2022-12-04T10:23:54;100068.06;;;13.99;38.87
61055;BME280;46939;48.940;8.258;2022-12-04T10:26:29;100064.53;;;14.05;38.99
61055;BME280;46939;48.940;8.258;2022-12-04T10:29:02;100062.25;;;14.08;38.88
61055;BME280;46939;48.940;8.258;2022-12-04T10:31:31;100056.28;;;14.13;38.57
61055;BME280;46939;48.940;8.258;2022-12-04T10:34:05;100059.88;;;14.00;38.71
61055;BME280;46939;48.940;8.258;2022-12-04T10:36:38;100052.31;;;13.97;39.11
61055;BME280;46939;48.940;8.258;2022-12-04T10:39:15;100056.50;;;14.11;38.82
61055;BME280;46939;48.940;8.258;2022-12-04T10:41:51;100054.16;;;14.22;38.32
61055;BME280;46939;48.940;8.258;2022-12-04T10:44:21;100059.97;;;14.12;38.47
61055;BME280;46939;48.940;8.258;2022-12-04T10:46:53;100052.56;;;14.14;38.72
61055;BME280;46939;48.940;8.258;2022-12-04T10:49:25;100058.59;;;14.28;38.54
61055;BME280;46939;48.940;8.258;2022-12-04T10:51:57;100051.66;;;14.27;38.44
61055;BME280;46939;48.940;8.258;2022-12-04T10:54:30;100054.09;;;14.28;38.72
61055;BME280;46939;48.940;8.258;2022-12-04T10:57:00;100053.50;;;14.26;38.56
61055;BME280;46939;48.940;8.258;2022-12-04T10:59:29;100052.31;;;14.22;38.63
61055;BME280;46939;48.940;8.258;2022-12-04T11:02:00;100052.66;;;14.26;38.54
61055;BME280;46939;48.940;8.258;2022-12-04T11:04:30;100048.00;;;14.21;38.41
61055;BME280;46939;48.940;8.258;2022-12-04T11:07:07;100049.13;;;14.32;38.69
61055;BME280;46939;48.940;8.258;2022-12-04T11:09:41;100060.03;;;14.30;38.72
61055;BME280;46939;48.940;8.258;2022-12-04T11:12:17;100061.56;;;14.20;39.11
61055;BME280;46939;48.940;8.258;2022-12-04T11:14:46;100053.22;;;14.34;38.35
61055;BME280;46939;48.940;8.258;2022-12-04T11:17:17;100067.94;;;14.19;38.97
61055;BME280;46939;48.940;8.258;2022-12-04T11:19:46;100050.91;;;14.20;38.73
61055;BME280;46939;48.940;8.258;2022-12-04T11:22:18;100057.66;;;14.22;38.75
61055;BME280;46939;48.940;8.258;2022-12-04T11:24:49;100064.97;;;14.27;38.59
61055;BME280;46939;48.940;8.258;2022-12-04T11:27:23;100068.47;;;14.27;38.74
61055;BME280;46939;48.940;8.258;2022-12-04T11:29:53;100061.69;;;14.25;38.74
61055;BME280;46939;48.940;8.258;2022-12-04T11:32:24;100063.50;;;14.31;38.55
61055;BME280;46939;48.940;8.258;2022-12-04T11:34:56;100066.13;;;14.37;38.88
61055;BME280;46939;48.940;8.258;2022-12-04T11:37:31;100070.84;;;14.35;39.02
61055;BME280;46939;48.940;8.258;2022-12-04T11:40:02;100068.53;;;14.39;38.56
61055;BME280;46939;48.940;8.258;2022-12-04T11:42:32;100078.44;;;14.32;39.01
61055;BME280;46939;48.940;8.258;2022-12-04T11:45:17;100074.16;;;14.31;38.99
61055;BME280;46939;48.940;8.258;2022-12-04T11:47:52;100076.97;;;14.36;39.25
61055;BME280;46939;48.940;8.258;2022-12-04T11:50:28;100076.97;;;14.36;38.91
61055;BME280;46939;48.940;8.258;2022-12-04T11:53:09;100070.50;;;14.25;38.93
61055;BME280;46939;48.940;8.258;2022-12-04T11:56:01;100073.97;;;14.26;39.01
61055;BME280;46939;48.940;8.258;2022-12-04T11:58:44;100076.00;;;14.30;39.17
61055;BME280;46939;48.940;8.258;2022-12-04T12:01:22;100070.44;;;14.32;39.18
61055;BME280;46939;48.940;8.258;2022-12-04T12:04:09;100074.88;;;14.20;38.81
61055;BME280;46939;48.940;8.258;2022-12-04T12:06:54;100072.53;;;14.30;38.97
61055;BME280;46939;48.940;8.258;2022-12-04T12:09:37;100071.50;;;14.31;38.95
61055;BME280;46939;48.940;8.258;2022-12-04T12:12:09;100065.06;;;14.38;38.95
61055;BME280;46939;48.940;8.258;2022-12-04T12:14:48;100053.44;;;14.33;39.02
61055;BME280;46939;48.940;8.258;2022-12-04T12:17:27;100049.75;;;14.34;38.86
61055;BME280;46939;48.940;8.258;2022-12-04T12:20:06;100047.34;;;14.26;38.94
61055;BME280;46939;48.940;8.258;2022-12-04T12:22:53;100043.09;;;14.18;39.23
61055;BME280;46939;48.940;8.258;2022-12-04T12:25:32;100041.09;;;14.13;39.75
61055;BME280;46939;48.940;8.258;2022-12-04T12:28:14;100041.81;;;14.02;40.05
61055;BME280;46939;48.940;8.258;2022-12-04T12:31:01;100043.00;;;14.06;39.75
61055;BME280;46939;48.940;8.258;2022-12-04T12:33:36;100041.38;;;14.05;39.96
61055;BME280;46939;48.940;8.258;2022-12-04T12:36:09;100040.63;;;13.98;39.76
61055;BME280;46939;48.940;8.258;2022-12-04T12:38:43;100040.84;;;13.97;39.49
61055;BME280;46939;48.940;8.258;2022-12-04T12:41:18;100027.91;;;14.00;39.85
61055;BME280;46939;48.940;8.258;2022-12-04T12:43:52;100030.34;;;14.02;40.15
61055;BME280;46939;48.940;8.258;2022-12-04T12:46:28;100035.88;;;14.07;39.77
61055;BME280;46939;48.940;8.258;2022-12-04T12:49:01;100023.69;;;13.92;40.36
61055;BME280;46939;48.940;8.258;2022-12-04T12:51:35;100038.34;;;14.02;40.00
61055;BME280;46939;48.940;8.258;2022-12-04T12:54:13;100036.34;;;13.97;39.96
61055;BME280;46939;48.940;8.258;2022-12-04T12:56:50;100030.78;;;13.99;39.98
61055;BME280;46939;48.940;8.258;2022-12-04T12:59:24;100029.41;;;13.96;40.05
61055;BME280;46939;48.940;8.258;2022-12-04T13:01:55;100026.72;;;13.96;40.20
61055;BME280;46939;48.940;8.258;2022-12-04T13:04:31;100015.47;;;13.94;40.35
61055;BME280;46939;48.940;8.258;2022-12-04T13:07:13;100019.75;;;13.95;40.79
61055;BME280;46939;48.940;8.258;2022-12-04T13:09:50;100006.44;;;13.95;40.96
61055;BME280;46939;48.940;8.258;2022-12-04T13:12:25;100013.09;;;13.86;40.88
61055;BME280;46939;48.940;8.258;2022-12-04T13:14:54;100015.16;;;13.84;41.19
61055;BME280;46939;48.940;8.258;2022-12-04T13:17:28;100010.41;;;13.86;41.09